createdAt,value
2018-06-12T20:35:31.015Z,7.30
2018-06-12T20:37:57.040Z,7.03
2018-06-12T20:40:23.072Z,8.00
2018-06-12T20:42:49.179Z,8.10
2018-06-12T20:45:15.186Z,8.23
2018-06-12T20:47:41.215Z,7.30
2018-06-12T20:50:07.230Z,7.90
2018-06-12T20:52:33.241Z,7.00
2018-06-12T20:54:59.258Z,7.57
2018-06-12T20:57:25.279Z,6.70
2018-06-12T20:59:51.297Z,6.60
2018-06-12T21:02:17.349Z,6.10
2018-06-12T21:04:43.377Z,8.20
2018-06-12T21:07:09.454Z,8.03
2018-06-12T21:09:36.316Z,6.43
2018-06-12T21:12:02.602Z,6.40
2018-06-12T21:14:28.621Z,7.07
2018-06-12T21:16:54.647Z,6.50
2018-06-12T21:19:20.670Z,6.40
2018-06-12T21:21:46.721Z,6.43
2018-06-12T21:24:12.744Z,7.10
2018-06-12T21:26:38.774Z,6.10
2018-06-12T21:29:04.786Z,7.50
2018-06-12T21:31:30.811Z,6.90
2018-06-12T21:33:56.843Z,6.37
2018-06-12T21:36:22.873Z,6.83
2018-06-12T21:38:48.890Z,5.87
2018-06-12T21:41:14.902Z,5.70
2018-06-12T21:43:40.916Z,6.43
2018-06-12T21:46:06.964Z,6.00
2018-06-12T21:48:32.990Z,5.70
2018-06-12T21:50:59.025Z,6.30
2018-06-12T21:53:25.065Z,5.33
2018-06-12T21:55:51.153Z,5.63
2018-06-12T21:58:17.152Z,6.10
2018-06-12T22:00:43.166Z,5.90
2018-06-12T22:03:09.190Z,6.10
2018-06-12T22:05:35.213Z,6.03
2018-06-12T22:08:01.282Z,5.97
2018-06-12T22:10:27.295Z,5.90
2018-06-12T22:12:53.320Z,5.67
2018-06-12T22:15:19.455Z,6.03
2018-06-12T22:17:45.501Z,5.77
2018-06-12T22:20:11.525Z,5.43
2018-06-12T22:22:37.558Z,5.67
2018-06-12T22:25:03.757Z,5.83
2018-06-12T22:27:29.866Z,5.77
2018-06-12T22:29:55.893Z,6.10
2018-06-12T22:32:21.974Z,5.50
2018-06-12T22:34:48.044Z,4.97
2018-06-12T22:37:14.065Z,6.60
2018-06-12T22:39:40.088Z,6.17
2018-06-12T22:42:06.101Z,5.20
2018-06-12T22:44:32.109Z,5.70
2018-06-12T22:46:58.133Z,5.60
2018-06-12T22:49:24.142Z,5.37
2018-06-12T22:51:50.169Z,5.70
2018-06-12T22:54:16.196Z,5.30
2018-06-12T22:56:42.239Z,5.50
2018-06-12T22:59:08.265Z,5.17
2018-06-12T23:01:34.273Z,5.70
2018-06-12T23:04:00.330Z,5.30
2018-06-12T23:06:26.338Z,4.80
2018-06-12T23:08:52.354Z,5.83
2018-06-12T23:11:18.362Z,5.00
2018-06-12T23:13:44.406Z,5.60
2018-06-12T23:16:10.411Z,6.27
2018-06-12T23:18:36.443Z,6.03
2018-06-12T23:21:02.460Z,5.13
2018-06-12T23:23:28.497Z,4.80
2018-06-12T23:25:54.514Z,5.50
2018-06-12T23:28:20.540Z,5.30
2018-06-12T23:30:46.545Z,5.60
2018-06-12T23:33:12.559Z,5.20
2018-06-12T23:35:38.574Z,5.33
2018-06-12T23:38:04.594Z,5.97
2018-06-12T23:40:30.606Z,5.33
2018-06-12T23:42:56.615Z,5.77
2018-06-12T23:45:22.621Z,5.50
2018-06-12T23:47:48.645Z,5.73
2018-06-12T23:50:14.653Z,5.47
2018-06-12T23:52:40.676Z,5.53
2018-06-12T23:55:06.682Z,5.43
2018-06-12T23:57:32.721Z,5.40
2018-06-12T23:59:58.726Z,5.13
